createdAt,value
2022-10-29T00:58:44.127Z,16.20
2022-10-29T01:01:10.811Z,16.10
2022-10-29T01:03:39.042Z,16.10
2022-10-29T01:06:05.987Z,16.00
2022-10-29T01:08:32.530Z,15.90
2022-10-29T01:11:17.146Z,15.90
2022-10-29T01:14:08.632Z,15.90
2022-10-29T01:16:47.032Z,15.80
2022-10-29T01:19:41.644Z,15.80
2022-10-29T01:22:39.057Z,15.80
2022-10-29T01:25:49.663Z,15.80
2022-10-29T01:28:25.852Z,15.70
2022-10-29T01:31:04.127Z,15.70
2022-10-29T01:33:40.381Z,15.60
2022-10-29T01:36:22.329Z,15.60
2022-10-29T01:38:57.742Z,15.60
2022-10-29T01:54:00.250Z,15.60
2022-10-29T01:56:27.043Z,15.60
2022-10-29T01:58:57.212Z,15.50
2022-10-29T02:01:48.197Z,15.50
2022-10-29T02:04:33.501Z,15.50
2022-10-29T02:07:35.235Z,15.40
2022-10-29T02:10:25.298Z,15.40
2022-10-29T02:12:53.976Z,15.40
2022-10-29T02:15:42.727Z,15.30
2022-10-29T02:18:09.737Z,15.30
2022-10-29T02:23:08.855Z,15.30
2022-10-29T02:25:35.547Z,15.30
2022-10-29T02:32:56.569Z,15.20
2022-10-29T02:35:23.379Z,15.20
2022-10-29T02:37:49.950Z,15.20
2022-10-29T02:40:16.571Z,15.20
2022-10-29T02:42:43.108Z,15.10
2022-10-29T02:45:10.112Z,15.10
2022-10-29T02:50:03.812Z,15.10
2022-10-29T02:52:30.311Z,15.10
2022-10-29T02:54:56.841Z,15.00
2022-10-29T02:57:23.350Z,15.00
2022-10-29T02:59:49.895Z,15.00
2022-10-29T03:02:16.470Z,15.10
2022-10-29T03:04:44.666Z,15.10
2022-10-29T03:07:11.205Z,14.90
2022-10-29T03:09:37.838Z,15.00
2022-10-29T03:12:04.469Z,15.00
2022-10-29T03:14:31.002Z,14.90
2022-10-29T03:16:57.524Z,14.90
2022-10-29T03:19:24.082Z,14.80
2022-10-29T03:21:50.596Z,14.80
2022-10-29T03:24:17.102Z,14.80
2022-10-29T03:26:43.642Z,14.80
2022-10-29T03:29:10.266Z,14.90
2022-10-29T03:34:03.774Z,14.90
2022-10-29T03:36:30.430Z,14.80
2022-10-29T03:38:56.940Z,14.80
2022-10-29T03:41:23.469Z,14.80
2022-10-29T06:05:11.154Z,13.90
2022-10-29T06:10:05.263Z,13.90
2022-10-29T06:12:34.869Z,13.90
2022-10-29T06:15:01.846Z,13.90
2022-10-29T06:17:28.365Z,13.80
2022-10-29T06:19:54.898Z,13.80
2022-10-29T06:22:21.423Z,13.50
2022-10-29T06:24:47.946Z,13.80
2022-10-29T06:27:14.709Z,13.70
2022-10-29T06:29:41.226Z,13.70
2022-10-29T06:32:07.790Z,13.70
2022-10-29T06:34:34.312Z,13.70
2022-10-29T06:39:27.797Z,13.70
2022-10-29T06:44:21.302Z,13.60
2022-10-29T06:46:47.926Z,13.60
2022-10-29T06:49:14.509Z,13.50
2022-10-29T06:51:41.073Z,13.60
2022-10-29T06:54:07.666Z,13.50
2022-10-29T06:56:34.554Z,13.50
2022-10-29T06:59:01.091Z,13.50
2022-10-29T07:01:31.595Z,13.50
2022-10-29T07:04:01.359Z,13.50
2022-10-29T07:06:28.534Z,13.60
2022-10-29T07:08:55.034Z,13.60
2022-10-29T07:11:21.569Z,13.60
2022-10-29T07:13:48.081Z,13.60
2022-10-29T07:16:14.643Z,13.70
2022-10-29T07:18:41.202Z,13.70
2022-10-29T07:21:07.846Z,13.60
2022-10-29T07:23:34.368Z,13.70
2022-10-29T07:26:00.890Z,13.70
2022-10-29T07:28:27.483Z,13.60
2022-10-29T07:31:00.045Z,13.60
2022-10-29T07:33:29.865Z,13.70
2022-10-29T07:35:58.551Z,13.70
2022-10-29T07:38:26.223Z,13.70
2022-10-29T07:40:53.756Z,13.70
2022-10-29T07:43:21.335Z,13.70
2022-10-29T07:45:49.983Z,13.70
2022-10-29T07:48:17.635Z,13.70
2022-10-29T07:50:44.192Z,13.70
2022-10-29T07:53:11.038Z,13.70
2022-10-29T07:55:37.654Z,13.70
2022-10-29T07:58:07.303Z,13.70
2022-10-29T08:00:36.600Z,13.80
2022-10-29T08:03:03.648Z,13.80
2022-10-29T08:05:30.971Z,13.80
2022-10-29T08:07:58.438Z,13.80
2022-10-29T08:10:25.676Z,13.90
2022-10-29T08:12:53.744Z,13.80
2022-10-29T08:15:21.278Z,13.80
2022-10-29T08:17:48.238Z,13.90
2022-10-29T08:20:15.813Z,13.80
2022-10-29T08:22:42.473Z,13.90
2022-10-29T08:25:09.573Z,13.90
2022-10-29T08:27:36.277Z,13.90
2022-10-29T08:30:03.398Z,13.90
2022-10-29T08:32:29.927Z,14.00
2022-10-29T08:34:56.518Z,14.00
2022-10-29T08:37:23.103Z,14.00
2022-10-29T08:39:49.741Z,14.00
2022-10-29T08:42:38.139Z,14.00
2022-10-29T08:45:22.703Z,14.00
2022-10-29T08:48:11.022Z,14.00
2022-10-29T08:50:42.260Z,14.00
2022-10-29T08:53:31.318Z,14.10
2022-10-29T08:56:00.265Z,14.10
2022-10-29T08:58:52.359Z,14.10
2022-10-29T09:01:22.019Z,14.10
2022-10-29T09:03:50.470Z,14.20
2022-10-29T09:06:44.038Z,14.20
2022-10-29T09:09:28.785Z,14.20
2022-10-29T09:12:07.017Z,14.20
2022-10-29T09:14:42.831Z,14.20
2022-10-29T09:17:18.983Z,14.30
2022-10-29T09:20:03.712Z,14.40
2022-10-29T09:22:45.717Z,14.30
2022-10-29T09:25:34.931Z,14.30
2022-10-29T09:28:34.909Z,14.30
2022-10-29T09:31:32.417Z,14.30
2022-10-29T09:34:05.457Z,14.30
2022-10-29T09:36:33.324Z,14.30
2022-10-29T09:39:03.698Z,14.30
2022-10-29T09:41:34.597Z,14.40
2022-10-29T09:44:02.603Z,14.40
2022-10-29T09:46:50.419Z,14.40
2022-10-29T09:49:46.889Z,14.40
2022-10-29T09:52:20.828Z,14.50
2022-10-29T09:54:51.010Z,14.50
2022-10-29T09:57:24.002Z,14.50
2022-10-29T10:00:13.459Z,14.60
2022-10-29T10:02:55.225Z,14.60
2022-10-29T10:05:28.129Z,14.60
2022-10-29T10:08:08.690Z,14.70
2022-10-29T10:10:39.407Z,14.70
2022-10-29T10:13:06.671Z,14.70
2022-10-29T10:15:36.409Z,14.80
2022-10-29T10:18:17.007Z,14.80
2022-10-29T10:20:58.880Z,14.80
2022-10-29T10:23:27.066Z,14.90
2022-10-29T10:26:00.337Z,14.90
2022-10-29T10:28:34.275Z,15.00
2022-10-29T10:31:13.056Z,15.00
2022-10-29T10:33:51.745Z,15.00
2022-10-29T10:36:22.131Z,15.10
2022-10-29T10:38:55.263Z,15.10
2022-10-29T10:41:25.606Z,15.20
2022-10-29T10:43:54.471Z,15.20
2022-10-29T10:46:27.236Z,15.30
2022-10-29T10:49:13.157Z,15.30
2022-10-29T10:51:44.689Z,15.40
2022-10-29T10:54:30.127Z,15.50
2022-10-29T10:57:02.121Z,15.50
2022-10-29T11:00:00.874Z,15.50
2022-10-29T11:02:48.990Z,15.60
2022-10-29T11:05:21.947Z,15.80
2022-10-29T11:08:01.591Z,15.70
2022-10-29T11:10:37.073Z,15.70
2022-10-29T11:13:10.764Z,15.80
2022-10-29T11:15:42.147Z,15.70
2022-10-29T11:18:56.301Z,15.80
2022-10-29T11:21:47.961Z,15.90
2022-10-29T11:24:26.814Z,15.90
2022-10-29T11:27:05.589Z,15.90
2022-10-29T11:29:40.542Z,16.00
2022-10-29T11:32:28.030Z,16.00
2022-10-29T11:35:05.430Z,16.10
2022-10-29T11:38:04.427Z,16.10
2022-10-29T11:40:53.976Z,16.20
2022-10-29T11:43:21.629Z,16.20
2022-10-29T11:46:25.455Z,16.30
2022-10-29T11:49:13.791Z,16.30
2022-10-29T11:51:52.264Z,16.30
2022-10-29T11:54:43.119Z,16.30
2022-10-29T11:57:16.693Z,16.40
2022-10-29T12:00:09.398Z,16.40
2022-10-29T12:02:55.117Z,16.50
2022-10-29T12:05:44.067Z,16.50
2022-10-29T12:08:34.751Z,16.50
2022-10-29T12:11:22.042Z,16.60
2022-10-29T12:14:08.598Z,16.60
2022-10-29T12:17:21.633Z,16.70
2022-10-29T12:20:01.591Z,16.70
2022-10-29T12:23:02.402Z,16.90
2022-10-29T12:25:58.244Z,16.90
2022-10-29T12:28:54.794Z,16.90
2022-10-29T12:31:35.741Z,16.90
2022-10-29T12:34:08.179Z,17.00
2022-10-29T12:39:38.869Z,16.90
2022-10-29T12:42:15.140Z,16.90
2022-10-29T12:44:59.162Z,17.00
2022-10-29T12:47:46.221Z,17.00
2022-10-29T12:50:43.855Z,17.10
2022-10-29T12:53:28.838Z,17.10
2022-10-29T12:55:57.661Z,17.10
2022-10-29T12:58:53.010Z,17.10
2022-10-29T13:01:38.371Z,17.20
2022-10-29T13:04:28.198Z,17.20
2022-10-29T13:09:29.935Z,17.20
2022-10-29T13:11:58.852Z,17.30
2022-10-29T13:14:40.235Z,17.20
2022-10-29T13:17:21.098Z,17.30
2022-10-29T13:22:47.736Z,17.30
2022-10-29T13:25:40.682Z,17.30
2022-10-29T13:28:10.268Z,17.30
2022-10-29T13:30:41.482Z,17.30
2022-10-29T13:33:26.126Z,17.40
2022-10-29T13:38:58.041Z,17.40
2022-10-29T13:41:42.916Z,17.50
2022-10-29T13:44:12.661Z,17.50
2022-10-29T13:46:45.476Z,17.50
2022-10-29T13:49:34.230Z,17.50
2022-10-29T13:52:08.752Z,17.50
2022-10-29T14:02:41.856Z,17.60
2022-10-29T14:08:01.293Z,17.60
2022-10-29T14:10:35.122Z,17.60
2022-10-29T14:13:27.658Z,17.60
2022-10-29T14:16:09.607Z,17.70
2022-10-29T14:18:47.254Z,17.70
2022-10-29T14:21:25.570Z,17.70
2022-10-29T14:24:07.571Z,17.80
2022-10-29T14:29:20.189Z,17.70
2022-10-29T14:31:48.099Z,17.70
2022-10-29T14:34:26.663Z,17.80
2022-10-29T14:37:00.092Z,17.80
2022-10-29T14:39:48.487Z,17.90
2022-10-29T14:42:34.539Z,17.90
2022-10-29T14:45:07.852Z,17.90
2022-10-29T14:47:36.612Z,17.90
2022-10-29T14:50:13.517Z,17.90
2022-10-29T14:52:49.662Z,17.90
2022-10-29T14:58:20.791Z,17.90
2022-10-29T15:01:05.699Z,17.90
2022-10-29T15:03:34.566Z,17.90
2022-10-29T15:06:25.067Z,17.90
2022-10-29T15:09:20.195Z,17.90
2022-10-29T15:12:17.719Z,17.90
2022-10-29T15:14:54.138Z,17.90
2022-10-29T15:17:29.193Z,17.90
2022-10-29T15:22:38.096Z,17.90
2022-10-29T15:25:08.400Z,17.90
2022-10-29T15:27:40.426Z,17.80
2022-10-29T15:30:07.521Z,17.80
2022-10-29T15:32:34.105Z,17.80
2022-10-29T15:35:00.732Z,17.80
2022-10-29T15:37:33.089Z,17.80
2022-10-29T15:40:14.890Z,17.80
2022-10-29T15:42:41.858Z,17.70
2022-10-29T15:45:08.535Z,17.70
2022-10-29T15:47:36.294Z,17.70
2022-10-29T15:50:03.964Z,17.60
2022-10-29T15:52:39.096Z,17.60
2022-10-29T15:55:13.243Z,17.60
2022-10-29T15:57:40.804Z,17.60
2022-10-29T16:00:08.533Z,17.60
2022-10-29T16:02:35.158Z,17.60
2022-10-29T16:05:01.722Z,17.50
2022-10-29T16:07:28.295Z,17.50
2022-10-29T16:09:57.830Z,17.40
2022-10-29T16:12:24.978Z,17.40
2022-10-29T16:14:51.501Z,17.40
2022-10-29T16:17:21.008Z,17.40
2022-10-29T16:19:47.745Z,17.30
2022-10-29T16:22:28.524Z,17.30
2022-10-29T16:24:55.873Z,17.30
2022-10-29T16:27:22.426Z,17.20
2022-10-29T16:29:51.987Z,17.10
2022-10-29T16:32:23.693Z,17.10
2022-10-29T16:34:50.502Z,17.10
2022-10-29T16:37:18.856Z,17.00
2022-10-29T16:39:45.556Z,17.00
2022-10-29T16:42:28.687Z,17.00
2022-10-29T16:44:55.453Z,16.90
2022-10-29T16:47:22.010Z,16.90
2022-10-29T16:49:48.554Z,16.90
2022-10-29T16:52:18.970Z,16.80
2022-10-29T16:54:48.970Z,16.80
2022-10-29T16:57:15.550Z,16.80
2022-10-29T16:59:42.049Z,16.80
2022-10-29T17:02:10.914Z,16.70
2022-10-29T17:04:37.551Z,16.70
2022-10-29T17:07:04.182Z,16.70
2022-10-29T17:09:30.768Z,16.70
2022-10-29T17:11:57.660Z,16.60
2022-10-29T17:14:24.637Z,16.60
2022-10-29T17:16:51.299Z,16.60
2022-10-29T17:19:17.808Z,16.60
2022-10-29T17:21:44.394Z,16.50
2022-10-29T17:24:10.962Z,16.50
2022-10-29T17:26:37.524Z,16.50
2022-10-29T17:29:04.043Z,16.40
2022-10-29T17:31:30.632Z,16.40
2022-10-29T17:33:57.167Z,16.40
2022-10-29T17:36:23.696Z,16.40
2022-10-29T17:38:50.233Z,16.40
2022-10-29T17:41:16.782Z,16.40
2022-10-29T17:43:43.420Z,16.30
2022-10-29T17:46:09.954Z,16.20
2022-10-29T17:48:36.776Z,16.30
2022-10-29T17:51:03.446Z,16.30
2022-10-29T17:53:31.102Z,16.20
2022-10-29T17:55:59.251Z,16.20
2022-10-29T17:58:26.044Z,16.20
2022-10-29T18:00:52.826Z,16.10
2022-10-29T18:03:19.511Z,16.10
2022-10-29T18:05:46.987Z,16.10
2022-10-29T18:08:13.513Z,16.10
2022-10-29T18:10:40.101Z,16.00
2022-10-29T18:13:06.658Z,16.10
2022-10-29T18:15:33.325Z,16.00
2022-10-29T18:18:00.773Z,16.00
2022-10-29T18:20:27.322Z,16.00
2022-10-29T18:22:55.957Z,16.00
2022-10-29T18:25:22.885Z,16.00
2022-10-29T18:27:55.362Z,15.90
2022-10-29T18:30:24.944Z,15.90
2022-10-29T18:32:51.621Z,15.90
2022-10-29T18:35:18.194Z,15.90
2022-10-29T18:37:46.092Z,16.00
2022-10-29T18:40:13.031Z,15.80
2022-10-29T18:42:44.267Z,15.80
2022-10-29T18:45:12.640Z,15.80
2022-10-29T18:47:39.165Z,15.80
2022-10-29T18:50:05.977Z,15.80
2022-10-29T18:52:33.083Z,15.70
2022-10-29T18:54:59.680Z,15.80
2022-10-29T18:57:26.301Z,15.70
2022-10-29T18:59:52.824Z,15.70
2022-10-29T19:02:19.514Z,15.70
2022-10-29T19:04:46.089Z,15.70
2022-10-29T19:07:12.628Z,15.60
2022-10-29T19:09:39.145Z,15.60
2022-10-29T19:12:05.965Z,15.60
2022-10-29T19:14:32.520Z,15.60
2022-10-29T19:16:59.015Z,15.60
2022-10-29T19:19:25.591Z,15.60
2022-10-29T19:21:52.184Z,15.60
2022-10-29T19:24:18.910Z,15.60
2022-10-29T19:26:45.565Z,15.60
2022-10-29T19:29:12.289Z,15.60
2022-10-29T19:31:39.075Z,15.60
2022-10-29T19:34:07.355Z,15.60
2022-10-29T19:36:35.513Z,15.60
2022-10-29T19:39:03.275Z,15.70
2022-10-29T19:41:30.487Z,15.50
2022-10-29T19:44:01.023Z,15.60
2022-10-29T19:46:28.437Z,15.60
2022-10-29T19:48:56.369Z,15.50
2022-10-29T19:51:23.232Z,15.60
2022-10-29T19:53:53.220Z,15.50
2022-10-29T19:56:21.139Z,15.60
2022-10-29T19:58:47.776Z,15.50
2022-10-29T20:01:16.456Z,15.40
2022-10-29T20:03:43.785Z,15.50
2022-10-29T20:06:11.071Z,15.50
2022-10-29T20:08:38.004Z,15.40
2022-10-29T20:11:05.518Z,15.50
2022-10-29T20:13:32.173Z,15.50
2022-10-29T20:15:58.842Z,15.50
2022-10-29T20:18:25.468Z,15.40
2022-10-29T20:20:56.314Z,15.40
2022-10-29T20:23:23.977Z,15.40
2022-10-29T20:25:50.622Z,15.40
2022-10-29T20:28:17.436Z,15.40
2022-10-29T20:30:44.217Z,15.40
2022-10-29T20:33:10.873Z,15.40
2022-10-29T20:35:37.479Z,15.30
2022-10-29T20:38:04.400Z,15.40
2022-10-29T20:40:31.077Z,15.40
2022-10-29T20:42:57.684Z,15.40
2022-10-29T20:45:24.415Z,15.40
2022-10-29T20:47:50.935Z,15.30
2022-10-29T20:50:17.479Z,15.30
2022-10-29T20:52:48.314Z,15.30
2022-10-29T20:55:15.694Z,15.30
2022-10-29T20:57:42.243Z,15.30
2022-10-29T21:00:10.132Z,15.30
2022-10-29T21:02:36.901Z,15.30
2022-10-29T21:05:03.863Z,15.30
2022-10-29T21:07:30.378Z,15.30
2022-10-29T21:09:56.938Z,15.20
2022-10-29T21:12:23.483Z,15.30
2022-10-29T21:14:50.045Z,15.30
2022-10-29T21:17:16.634Z,15.20
2022-10-29T21:19:43.171Z,15.20
2022-10-29T21:22:09.725Z,15.20
2022-10-29T21:24:36.938Z,15.20
2022-10-29T21:27:04.895Z,15.20
2022-10-29T21:29:31.411Z,14.90
2022-10-29T21:31:57.951Z,15.20
2022-10-29T21:34:24.465Z,15.10
2022-10-29T21:36:50.975Z,15.10
2022-10-29T21:39:17.483Z,15.10
2022-10-29T21:41:44.014Z,15.10
2022-10-29T21:44:10.518Z,15.10
2022-10-29T21:46:37.037Z,15.00
2022-10-29T21:49:03.560Z,15.00
2022-10-29T21:51:30.086Z,15.00
2022-10-29T21:53:56.788Z,15.00
2022-10-29T21:56:23.326Z,15.00
2022-10-29T21:58:52.218Z,15.00
2022-10-29T22:01:18.925Z,15.00
2022-10-29T22:03:46.811Z,14.90
2022-10-29T22:06:16.064Z,14.90
2022-10-29T22:08:43.178Z,14.90
2022-10-29T22:11:10.970Z,15.00
2022-10-29T22:13:38.190Z,15.00
2022-10-29T22:16:06.089Z,14.90
2022-10-29T22:18:33.414Z,14.90
2022-10-29T22:21:15.390Z,14.80
2022-10-29T22:23:44.077Z,14.80
2022-10-29T22:26:11.563Z,14.80
2022-10-29T22:28:38.142Z,14.90
2022-10-29T22:31:05.689Z,14.80
2022-10-29T22:33:33.078Z,14.80
2022-10-29T22:36:18.213Z,14.70
2022-10-29T22:38:45.133Z,14.70
2022-10-29T22:41:14.770Z,14.70
2022-10-29T22:43:41.740Z,14.80
2022-10-29T22:46:14.106Z,14.80
2022-10-29T22:48:41.085Z,14.70
2022-10-29T22:51:14.925Z,14.60
2022-10-29T22:53:41.972Z,14.60
2022-10-29T22:56:16.527Z,14.50
2022-10-29T22:58:43.706Z,14.50
2022-10-29T23:01:13.337Z,14.50
2022-10-29T23:03:41.110Z,14.50
2022-10-29T23:06:09.632Z,14.50
2022-10-29T23:08:36.662Z,14.50
2022-10-29T23:11:08.523Z,14.50
2022-10-29T23:13:35.092Z,14.50
2022-10-29T23:16:01.707Z,14.50
2022-10-29T23:18:29.276Z,14.50
2022-10-29T23:21:00.982Z,14.50
2022-10-29T23:23:28.245Z,14.50
2022-10-29T23:25:57.897Z,14.50
2022-10-29T23:28:24.503Z,14.40
2022-10-29T23:30:55.767Z,14.40
2022-10-29T23:33:23.023Z,14.40
2022-10-29T23:35:50.239Z,14.40
2022-10-29T23:38:17.094Z,14.40
2022-10-29T23:40:47.590Z,14.40
2022-10-29T23:43:14.879Z,14.40
2022-10-29T23:45:42.644Z,14.40
2022-10-29T23:48:09.530Z,14.50
2022-10-29T23:50:37.325Z,14.40
2022-10-29T23:53:04.709Z,14.40
2022-10-29T23:55:31.306Z,14.50
2022-10-29T23:57:57.853Z,14.40
